Time;durP1;ratioP1;P1;durP2;ratioP2;P2;SDS_P1;SDS_P2;PMS_P1;PMS_P2;Temp;Humidity;BMP_temperature;BMP_pressure;BME280_temperature;BME280_humidity;BME280_pressure;Samples;Min_cycle;Max_cycle;Signal;HPM_P1;HPM_P2
2022/12/23 00:00:59;;;;;;;;;;;;;;;2.40;80.88;97460.40;1730615;82;20149;-73
2022/12/23 00:03:26;;;;;;;;;;;;;;;2.39;81.02;97457.36;1729752;82;20150;-74
2022/12/23 00:05:53;;;;;;;;;;;;;;;2.36;81.02;97461.28;1734160;82;20130;-75
2022/12/23 00:08:20;;;;;;;;;;;;;;;2.32;81.11;97455.67;1737318;82;20084;-74
2022/12/23 00:10:48;;;;;;;;;;;;;;;2.30;80.93;97463.52;1729958;82;20418;-73
2022/12/23 00:16:05;;;;;;;;;;;;;;;2.23;81.20;97472.25;1726288;82;20081;-76
2022/12/23 00:18:32;;;;;;;;;;;;;;;2.17;80.96;97468.36;1722435;82;20169;-77
2022/12/23 00:21:00;;;;;;;;;;;;;;;2.14;81.05;97473.59;1733537;82;20158;-77
2022/12/23 00:23:27;;;;;;;;;;;;;;;2.11;81.18;97466.21;1733452;81;20142;-77
2022/12/23 00:25:53;;;;;;;;;;;;;;;2.10;81.20;97473.62;1728282;82;20181;-76
2022/12/23 00:28:21;;;;;;;;;;;;;;;2.08;81.07;97467.52;1732377;82;20087;-77
2022/12/23 00:30:54;;;;;;;;;;;;;;;2.05;81.14;97470.16;1727968;82;20137;-76
2022/12/23 00:33:27;;;;;;;;;;;;;;;2.01;81.30;97465.82;1723405;82;20095;-76
2022/12/23 00:35:54;;;;;;;;;;;;;;;1.98;81.50;97469.31;1735000;82;20102;-76
2022/12/23 00:44:00;;;;;;;;;;;;;;;1.94;81.55;97457.55;1735623;82;20123;-77
2022/12/23 00:46:27;;;;;;;;;;;;;;;1.95;81.45;97459.31;1732996;82;20122;-77
2022/12/23 00:51:38;;;;;;;;;;;;;;;1.95;81.97;97463.23;1746186;82;20169;-77
2022/12/23 00:54:05;;;;;;;;;;;;;;;1.92;81.64;97454.97;1725905;82;20117;-77
2022/12/23 00:56:31;;;;;;;;;;;;;;;1.89;81.81;97453.66;1726052;82;20158;-77
2022/12/23 00:58:58;;;;;;;;;;;;;;;1.88;81.84;97449.32;1726109;82;20126;-77
2022/12/23 01:06:59;;;;;;;;;;;;;;;1.91;81.97;97454.97;1735889;82;20098;-76
2022/12/23 01:09:25;;;;;;;;;;;;;;;1.94;82.02;97440.56;1732227;82;20109;-76
2022/12/23 01:11:52;;;;;;;;;;;;;;;1.96;81.82;97449.28;1726456;82;20125;-77
2022/12/23 01:14:18;;;;;;;;;;;;;;;1.95;81.83;97444.48;1726230;82;20083;-76
2022/12/23 01:16:44;;;;;;;;;;;;;;;1.99;81.73;97449.25;1726789;82;20334;-77
2022/12/23 01:19:11;;;;;;;;;;;;;;;1.98;81.64;97437.95;1731930;82;20185;-76
2022/12/23 01:21:37;;;;;;;;;;;;;;;1.96;81.65;97434.45;1732165;82;20093;-76
2022/12/23 01:24:04;;;;;;;;;;;;;;;1.97;81.55;97441.45;1742157;82;20141;-77
2022/12/23 01:26:30;;;;;;;;;;;;;;;1.96;81.65;97439.69;1727173;82;20090;-76
2022/12/23 01:28:57;;;;;;;;;;;;;;;1.94;81.46;97440.56;1738996;82;20127;-76
2022/12/23 01:31:25;;;;;;;;;;;;;;;1.94;81.78;97437.95;1732408;82;20136;-76
2022/12/23 01:33:52;;;;;;;;;;;;;;;1.92;81.83;97440.59;1726301;82;20138;-75
2022/12/23 01:36:20;;;;;;;;;;;;;;;1.89;81.81;97434.06;1726309;82;20117;-75
2022/12/23 01:38:46;;;;;;;;;;;;;;;1.89;82.11;97440.59;1726314;82;20124;-75
2022/12/23 01:44:47;;;;;;;;;;;;;;;1.88;82.31;97428.84;1735175;82;20093;-76
2022/12/23 01:47:29;;;;;;;;;;;;;;;1.91;82.30;97428.84;1725059;82;20113;-76
2022/12/23 01:50:04;;;;;;;;;;;;;;;1.89;82.00;97422.73;1738184;82;20328;-76
2022/12/23 01:52:34;;;;;;;;;;;;;;;1.86;81.84;97420.15;1716660;82;20152;-76
2022/12/23 01:55:00;;;;;;;;;;;;;;;1.85;81.85;97417.96;1723489;82;20163;-76
2022/12/23 01:57:27;;;;;;;;;;;;;;;1.83;81.72;97422.34;1740605;82;20118;-76
2022/12/23 02:05:25;;;;;;;;;;;;;;;1.78;81.92;97428.88;1737520;82;20129;-76
2022/12/23 02:11:00;;;;;;;;;;;;;;;1.76;81.90;97427.14;1740817;82;20335;-76
2022/12/23 02:13:33;;;;;;;;;;;;;;;1.74;81.99;97417.14;1722850;82;20149;-76
2022/12/23 02:16:17;;;;;;;;;;;;;;;1.78;82.45;97409.73;1726792;82;20336;-76
2022/12/23 02:18:52;;;;;;;;;;;;;;;1.78;82.50;97414.50;1727458;82;20339;-76
2022/12/23 02:21:28;;;;;;;;;;;;;;;1.77;82.26;97410.58;1743627;82;20091;-76
2022/12/23 02:24:30;;;;;;;;;;;;;;;1.73;82.26;97412.34;1738130;82;20120;-76
2022/12/23 02:27:20;;;;;;;;;;;;;;;1.68;82.43;97420.63;1727166;82;20111;-76
2022/12/23 02:29:55;;;;;;;;;;;;;;;1.60;82.32;97411.95;1735609;82;20141;-76
2022/12/23 02:32:57;;;;;;;;;;;;;;;1.56;82.86;97407.17;1724931;82;20103;-77
2022/12/23 02:35:30;;;;;;;;;;;;;;;1.56;82.89;97402.83;1723123;82;20097;-77
2022/12/23 02:38:17;;;;;;;;;;;;;;;1.50;82.78;97401.98;1722893;82;20130;-77
2022/12/23 02:40:56;;;;;;;;;;;;;;;1.38;82.59;97395.92;1721386;82;20118;-76
2022/12/23 02:43:32;;;;;;;;;;;;;;;1.29;82.79;97404.63;1721353;82;20182;-77
2022/12/23 02:46:05;;;;;;;;;;;;;;;1.20;82.73;97410.31;1722447;82;20157;-77
2022/12/23 02:48:50;;;;;;;;;;;;;;;1.10;82.82;97409.02;1699220;82;20178;-77
2022/12/23 02:51:18;;;;;;;;;;;;;;;1.04;82.74;97411.19;1693616;83;20396;-77
2022/12/23 02:53:48;;;;;;;;;;;;;;;0.97;82.87;97420.33;1693835;83;20115;-76
2022/12/23 02:56:17;;;;;;;;;;;;;;;0.90;82.97;97402.08;1693584;83;20143;-76
2022/12/23 02:58:50;;;;;;;;;;;;;;;0.86;82.71;97410.77;1693732;83;20465;-76
2022/12/23 03:01:17;;;;;;;;;;;;;;;0.77;82.41;97418.17;1697072;83;20446;-76
2022/12/23 03:03:45;;;;;;;;;;;;;;;0.65;82.45;97425.55;1693652;83;20155;-76
2022/12/23 03:06:21;;;;;;;;;;;;;;;0.63;82.70;97422.51;1693722;83;20191;-76
2022/12/23 03:08:49;;;;;;;;;;;;;;;0.57;82.73;97422.06;1689202;83;20183;-76
2022/12/23 03:11:16;;;;;;;;;;;;;;;0.50;82.59;97420.33;1694070;83;20266;-76
2022/12/23 03:14:04;;;;;;;;;;;;;;;0.46;82.67;97421.19;1693556;83;20127;-76
2022/12/23 03:16:37;;;;;;;;;;;;;;;0.39;82.64;97421.19;1693926;83;20470;-77
2022/12/23 03:19:31;;;;;;;;;;;;;;;0.35;82.56;97424.64;1693653;83;20175;-78
2022/12/23 03:22:04;;;;;;;;;;;;;;;0.26;82.59;97405.92;1693390;83;20363;-77
2022/12/23 03:24:51;;;;;;;;;;;;;;;0.19;82.71;97413.73;1710895;83;20167;-77
2022/12/23 03:27:27;;;;;;;;;;;;;;;0.12;82.60;97416.33;1693576;83;20174;-76
2022/12/23 03:30:06;;;;;;;;;;;;;;;0.06;82.83;97413.71;1703592;83;20180;-76
2022/12/23 03:32:44;;;;;;;;;;;;;;;0.06;83.02;97411.11;1710434;83;20392;-76
2022/12/23 03:35:13;;;;;;;;;;;;;;;0.01;82.93;97408.92;1694792;83;20195;-77
2022/12/23 03:37:43;;;;;;;;;;;;;;;-0.05;83.52;97413.67;1693719;83;20119;-76
2022/12/23 03:40:13;;;;;;;;;;;;;;;-0.04;83.40;97411.95;1694184;83;20123;-76
2022/12/23 03:42:40;;;;;;;;;;;;;;;-0.05;83.21;97407.58;1693516;83;20119;-76
2022/12/23 03:45:13;;;;;;;;;;;;;;;-0.10;83.28;97407.99;1693682;83;20119;-76
2022/12/23 03:47:46;;;;;;;;;;;;;;;-0.12;83.06;97416.25;1697418;83;20170;-76
2022/12/23 03:50:15;;;;;;;;;;;;;;;-0.17;83.49;97418.39;1725393;82;20145;-76
2022/12/23 03:53:06;;;;;;;;;;;;;;;-0.17;83.21;97413.19;1743721;82;20355;-77
2022/12/23 03:55:37;;;;;;;;;;;;;;;-0.17;83.41;97415.80;1726331;82;20543;-76
2022/12/23 03:58:13;;;;;;;;;;;;;;;-0.16;83.51;97415.38;1726500;82;20238;-76
2022/12/23 04:00:43;;;;;;;;;;;;;;;-0.11;83.40;97415.38;1739557;82;20088;-76
2022/12/23 04:03:18;;;;;;;;;;;;;;;-0.09;83.68;97410.61;1729185;81;20122;-76
2022/12/23 04:05:51;;;;;;;;;;;;;;;-0.05;83.71;97405.85;1722622;82;20145;-76
2022/12/23 04:08:26;;;;;;;;;;;;;;;0.01;84.37;97411.53;1727127;82;20118;-76
2022/12/23 04:10:52;;;;;;;;;;;;;;;0.02;85.33;97406.75;1727100;82;20088;-76
2022/12/23 04:13:19;;;;;;;;;;;;;;;0.05;84.93;97405.46;1726349;82;20083;-76
2022/12/23 04:15:45;;;;;;;;;;;;;;;0.09;84.61;97418.91;1726472;82;20344;-76
2022/12/23 04:18:11;;;;;;;;;;;;;;;0.12;84.92;97423.26;1726208;82;20147;-76
2022/12/23 04:20:37;;;;;;;;;;;;;;;0.19;84.93;97409.81;1726518;82;20110;-76
2022/12/23 04:23:04;;;;;;;;;;;;;;;0.25;84.63;97414.61;1738740;82;20114;-76
2022/12/23 04:25:30;;;;;;;;;;;;;;;0.30;84.57;97414.64;1732998;82;20471;-76
2022/12/23 04:27:57;;;;;;;;;;;;;;;0.34;84.78;97418.97;1726562;82;20137;-76
2022/12/23 04:30:23;;;;;;;;;;;;;;;0.44;85.18;97417.69;1726255;82;20399;-76
2022/12/23 04:32:49;;;;;;;;;;;;;;;0.56;85.32;97420.75;1725981;82;20386;-76
2022/12/23 04:35:16;;;;;;;;;;;;;;;0.67;85.46;97424.67;1726358;82;20173;-76
2022/12/23 04:37:42;;;;;;;;;;;;;;;0.74;84.96;97425.10;1734062;82;20092;-76
2022/12/23 04:40:09;;;;;;;;;;;;;;;0.75;84.99;97424.26;1726817;82;20159;-76
2022/12/23 04:42:35;;;;;;;;;;;;;;;0.75;85.21;97428.17;1726215;82;20165;-76
2022/12/23 04:45:01;;;;;;;;;;;;;;;0.79;85.58;97424.24;1726341;82;20137;-76
2022/12/23 04:47:28;;;;;;;;;;;;;;;0.74;85.52;97425.98;1725912;82;20082;-77
2022/12/23 04:49:54;;;;;;;;;;;;;;;0.73;85.65;97428.16;1724657;82;20137;-77
2022/12/23 04:52:20;;;;;;;;;;;;;;;0.77;85.86;97430.33;1724582;82;20205;-76
2022/12/23 04:54:47;;;;;;;;;;;;;;;0.81;85.59;97429.47;1723028;82;20118;-76
2022/12/23 04:57:14;;;;;;;;;;;;;;;0.81;85.06;97434.69;1737838;82;20091;-76
2022/12/23 04:59:41;;;;;;;;;;;;;;;0.78;85.02;97432.95;1730743;82;20174;-76
2022/12/23 05:02:07;;;;;;;;;;;;;;;0.80;85.18;97438.17;1724667;82;20135;-76
2022/12/23 05:04:33;;;;;;;;;;;;;;;0.78;85.08;97438.16;1723976;82;20174;-77
2022/12/23 05:07:00;;;;;;;;;;;;;;;0.76;84.73;97429.91;1731773;82;20304;-76
2022/12/23 05:09:26;;;;;;;;;;;;;;;0.75;85.05;97426.87;1730459;82;20153;-76
2022/12/23 05:11:52;;;;;;;;;;;;;;;0.73;85.76;97428.16;1722406;82;20158;-77
2022/12/23 05:14:18;;;;;;;;;;;;;;;0.71;86.06;97425.13;1722943;82;20320;-77
2022/12/23 05:16:44;;;;;;;;;;;;;;;0.67;85.34;97430.77;1727546;82;20123;-77
2022/12/23 05:19:11;;;;;;;;;;;;;;;0.68;85.73;97429.90;1755079;80;20181;-77
2022/12/23 05:21:37;;;;;;;;;;;;;;;0.72;85.75;97435.98;1725195;82;20124;-77
2022/12/23 05:24:03;;;;;;;;;;;;;;;0.72;85.38;97435.56;1725280;82;20097;-76
2022/12/23 05:26:30;;;;;;;;;;;;;;;0.69;85.61;97434.24;1725208;83;20133;-77
2022/12/23 05:28:56;;;;;;;;;;;;;;;0.68;85.48;97427.29;1724944;82;20365;-76
2022/12/23 05:31:22;;;;;;;;;;;;;;;0.68;85.70;97427.72;1725477;82;20122;-77
2022/12/23 05:33:48;;;;;;;;;;;;;;;0.66;85.46;97427.70;1725157;82;20098;-77
2022/12/23 05:36:14;;;;;;;;;;;;;;;0.67;85.47;97426.86;1725293;83;20109;-77
2022/12/23 05:38:41;;;;;;;;;;;;;;;0.67;85.59;97430.77;1725084;83;20121;-77
2022/12/23 05:41:07;;;;;;;;;;;;;;;0.66;85.84;97430.31;1709439;83;20348;-77
2022/12/23 05:43:33;;;;;;;;;;;;;;;0.67;85.53;97428.17;1713173;83;20116;-76
2022/12/23 05:45:59;;;;;;;;;;;;;;;0.69;85.79;97432.05;1706785;83;20087;-76
2022/12/23 05:48:25;;;;;;;;;;;;;;;0.68;86.06;97427.72;1726692;81;20105;-76
2022/12/23 05:50:52;;;;;;;;;;;;;;;0.71;85.79;97426.42;1732720;83;20358;-76
2022/12/23 05:53:20;;;;;;;;;;;;;;;0.76;85.76;97429.91;1709400;84;20085;-76
2022/12/23 05:55:47;;;;;;;;;;;;;;;0.78;85.80;97433.37;1707231;84;20356;-76
2022/12/23 05:58:13;;;;;;;;;;;;;;;0.84;85.76;97443.83;1691566;84;20085;-75
2022/12/23 06:00:40;;;;;;;;;;;;;;;0.86;85.62;97438.16;1682254;84;20107;-75
2022/12/23 06:03:06;;;;;;;;;;;;;;;0.90;85.88;97432.50;1723495;82;20357;-74
2022/12/23 06:05:35;;;;;;;;;;;;;;;0.94;86.04;97431.64;1736352;82;20125;-76
2022/12/23 06:08:01;;;;;;;;;;;;;;;0.96;85.85;97440.78;1717181;83;20206;-74
2022/12/23 06:10:27;;;;;;;;;;;;;;;0.97;85.87;97445.12;1711646;83;20108;-75
2022/12/23 06:12:53;;;;;;;;;;;;;;;0.95;85.80;97444.27;1711932;83;20095;-76
2022/12/23 06:15:19;;;;;;;;;;;;;;;0.90;85.68;97445.55;1713822;83;20091;-76
2022/12/23 06:17:46;;;;;;;;;;;;;;;0.86;85.56;97443.80;1714239;81;20504;-76
2022/12/23 06:20:13;;;;;;;;;;;;;;;0.86;85.79;97443.80;1715413;83;20397;-76
2022/12/23 06:22:39;;;;;;;;;;;;;;;0.84;85.50;97445.13;1717287;83;20095;-76
2022/12/23 06:25:08;;;;;;;;;;;;;;;0.81;86.00;97445.54;1716029;83;20119;-76
2022/12/23 06:27:34;;;;;;;;;;;;;;;0.77;86.26;97445.98;1723025;81;20381;-77
2022/12/23 06:30:03;;;;;;;;;;;;;;;0.73;85.78;97442.51;1725932;81;20107;-76
2022/12/23 06:32:30;;;;;;;;;;;;;;;0.72;86.29;97435.56;1714861;83;20143;-76
2022/12/23 06:34:56;;;;;;;;;;;;;;;0.73;86.01;97432.50;1729315;81;20388;-76
2022/12/23 06:37:22;;;;;;;;;;;;;;;0.73;86.01;97432.08;1716829;83;20131;-76
2022/12/23 06:39:48;;;;;;;;;;;;;;;0.76;86.19;97431.20;1725263;81;20141;-76
2022/12/23 06:42:15;;;;;;;;;;;;;;;0.79;86.89;97433.83;1721906;83;20140;-77
2022/12/23 06:44:41;;;;;;;;;;;;;;;0.84;86.58;97441.22;1726019;83;20184;-76
2022/12/23 06:47:07;;;;;;;;;;;;;;;0.94;87.04;97443.80;1716780;82;20098;-76
2022/12/23 06:49:33;;;;;;;;;;;;;;;1.01;86.59;97445.13;1729367;83;20094;-76
2022/12/23 06:52:00;;;;;;;;;;;;;;;1.03;86.12;97444.69;1729565;81;20123;-76
2022/12/23 06:54:26;;;;;;;;;;;;;;;1.06;86.15;97438.59;1717713;81;20158;-76
2022/12/23 06:56:52;;;;;;;;;;;;;;;1.08;86.27;97440.75;1719909;83;20365;-76
2022/12/23 06:59:18;;;;;;;;;;;;;;;1.10;86.28;97442.95;1739978;81;20125;-76
2022/12/23 07:01:44;;;;;;;;;;;;;;;1.16;86.71;97449.91;1711454;81;20427;-76
2022/12/23 07:04:11;;;;;;;;;;;;;;;1.20;86.66;97439.03;1726580;81;20172;-76
2022/12/23 07:06:38;;;;;;;;;;;;;;;1.20;86.28;97442.48;1721716;83;20152;-76
2022/12/23 07:09:06;;;;;;;;;;;;;;;1.17;86.03;97442.05;1711052;81;20219;-76
2022/12/23 07:11:33;;;;;;;;;;;;;;;1.13;85.82;97442.92;1731930;83;20113;-76
2022/12/23 07:13:59;;;;;;;;;;;;;;;1.15;86.17;97435.98;1720197;81;20136;-76
2022/12/23 07:16:25;;;;;;;;;;;;;;;1.15;86.12;97425.97;1721691;83;20127;-76
2022/12/23 07:18:52;;;;;;;;;;;;;;;1.08;86.10;97417.72;1710877;81;20139;-76
2022/12/23 07:21:18;;;;;;;;;;;;;;;1.02;86.10;97417.28;1710557;83;20192;-75
2022/12/23 07:23:44;;;;;;;;;;;;;;;0.96;86.01;97427.30;1719237;81;20426;-76
2022/12/23 07:26:11;;;;;;;;;;;;;;;0.95;85.73;97442.50;1713751;81;20113;-76
2022/12/23 07:28:37;;;;;;;;;;;;;;;0.94;86.01;97445.11;1697437;83;20144;-76
2022/12/23 07:31:07;;;;;;;;;;;;;;;0.92;86.30;97432.94;1749220;81;20091;-76
2022/12/23 07:33:33;;;;;;;;;;;;;;;0.94;86.55;97430.33;1765334;79;20093;-76
2022/12/23 07:35:59;;;;;;;;;;;;;;;0.94;86.56;97442.50;1751868;79;20156;-76
2022/12/23 07:38:26;;;;;;;;;;;;;;;0.96;86.53;97442.08;1749242;79;20166;-76
2022/12/23 07:40:52;;;;;;;;;;;;;;;0.98;86.39;97440.33;1749266;79;20088;-75
2022/12/23 07:43:18;;;;;;;;;;;;;;;1.01;86.39;97449.47;1757367;81;20160;-75
2022/12/23 07:45:44;;;;;;;;;;;;;;;1.05;86.45;97449.91;1758511;79;20346;-76
2022/12/23 07:48:11;;;;;;;;;;;;;;;1.11;86.25;97447.71;1761246;79;20114;-75
2022/12/23 07:50:37;;;;;;;;;;;;;;;1.13;86.32;97444.69;1769078;79;20125;-75
2022/12/23 07:53:03;;;;;;;;;;;;;;;1.13;86.34;97450.75;1750216;79;20084;-75
2022/12/23 07:55:29;;;;;;;;;;;;;;;1.17;86.23;97445.13;1752349;81;20335;-75
2022/12/23 07:57:56;;;;;;;;;;;;;;;1.18;86.10;97439.91;1767883;79;20116;-75
2022/12/23 08:00:22;;;;;;;;;;;;;;;1.21;86.18;97443.37;1759509;79;20099;-76
2022/12/23 08:02:48;;;;;;;;;;;;;;;1.26;86.18;97445.11;1757040;79;20095;-75
2022/12/23 08:05:15;;;;;;;;;;;;;;;1.32;86.36;97452.05;1785904;79;20095;-75
2022/12/23 08:07:41;;;;;;;;;;;;;;;1.36;86.18;97445.95;1761177;79;20396;-76
2022/12/23 08:10:08;;;;;;;;;;;;;;;1.40;86.04;97452.03;1756622;81;20083;-75
2022/12/23 08:12:34;;;;;;;;;;;;;;;1.43;85.97;97454.23;1756497;79;20116;-75
2022/12/23 08:15:00;;;;;;;;;;;;;;;1.47;86.10;97459.42;1747331;79;20115;-75
2022/12/23 08:17:28;;;;;;;;;;;;;;;1.51;85.97;97463.78;1757641;79;20097;-75
2022/12/23 08:19:54;;;;;;;;;;;;;;;1.52;85.92;97458.98;1756142;80;20418;-76
2022/12/23 08:22:20;;;;;;;;;;;;;;;1.52;85.79;97466.39;1765693;79;20088;-76
2022/12/23 08:24:47;;;;;;;;;;;;;;;1.54;85.78;97463.33;1747055;79;20123;-76
2022/12/23 08:27:15;;;;;;;;;;;;;;;1.58;85.70;97464.21;1756247;79;20322;-75
2022/12/23 08:29:41;;;;;;;;;;;;;;;1.59;85.76;97472.48;1732478;83;20409;-75
2022/12/23 08:32:08;;;;;;;;;;;;;;;1.58;85.65;97464.21;1752206;81;20166;-75
2022/12/23 08:34:34;;;;;;;;;;;;;;;1.62;85.66;97458.54;1746617;81;20170;-75
2022/12/23 08:37:01;;;;;;;;;;;;;;;1.65;85.62;97458.52;1756039;79;20968;-75
2022/12/23 08:39:27;;;;;;;;;;;;;;;1.73;85.67;97455.91;1746757;81;20363;-75
2022/12/23 08:41:53;;;;;;;;;;;;;;;1.82;85.70;97455.85;1756597;79;20108;-75
2022/12/23 08:44:21;;;;;;;;;;;;;;;1.93;85.45;97448.86;1746142;81;20120;-76
2022/12/23 08:46:47;;;;;;;;;;;;;;;2.01;85.44;97447.95;1746674;79;20114;-76
2022/12/23 08:49:13;;;;;;;;;;;;;;;2.11;85.42;97437.45;1750839;79;20282;-76
2022/12/23 08:51:40;;;;;;;;;;;;;;;2.26;85.40;97439.98;1729709;81;20355;-76
2022/12/23 08:54:09;;;;;;;;;;;;;;;2.43;85.44;97438.59;1707979;83;20164;-75
2022/12/23 08:56:40;;;;;;;;;;;;;;;2.63;85.42;97424.09;1715166;83;20152;-75
2022/12/23 08:59:13;;;;;;;;;;;;;;;2.87;85.33;97427.41;1706186;84;20140;-75
2022/12/23 09:01:39;;;;;;;;;;;;;;;3.05;84.99;97427.69;1746906;82;20120;-75
2022/12/23 09:04:08;;;;;;;;;;;;;;;3.21;84.35;97428.86;1736057;82;20324;-75
2022/12/23 09:06:37;;;;;;;;;;;;;;;3.30;83.78;97428.77;1753879;82;20169;-75
2022/12/23 09:09:05;;;;;;;;;;;;;;;3.42;83.84;97433.91;1734064;82;20093;-75
2022/12/23 09:11:31;;;;;;;;;;;;;;;3.55;83.50;97427.21;1731453;82;20168;-75
2022/12/23 09:14:00;;;;;;;;;;;;;;;3.67;83.78;97428.83;1731002;82;20132;-76
2022/12/23 09:16:27;;;;;;;;;;;;;;;3.77;83.48;97430.46;1730761;82;20381;-75
2022/12/23 09:18:54;;;;;;;;;;;;;;;3.86;83.32;97424.70;1730460;82;20435;-75
2022/12/23 09:21:22;;;;;;;;;;;;;;;3.94;83.01;97421.52;1731220;82;20161;-76
2022/12/23 09:23:49;;;;;;;;;;;;;;;4.06;83.05;97417.45;1730935;82;20081;-76
2022/12/23 09:26:24;;;;;;;;;;;;;;;4.19;82.51;97411.59;1730623;82;20101;-76
2022/12/23 09:28:50;;;;;;;;;;;;;;;4.28;81.92;97416.30;1730767;82;20089;-76
2022/12/23 09:31:17;;;;;;;;;;;;;;;4.32;82.20;97412.75;1731156;82;20117;-76
2022/12/23 09:33:46;;;;;;;;;;;;;;;4.37;81.78;97413.55;1731314;82;20176;-76
2022/12/23 09:36:12;;;;;;;;;;;;;;;4.40;80.08;97410.87;1730832;82;20089;-76
2022/12/23 09:38:39;;;;;;;;;;;;;;;4.41;80.80;97407.38;1730968;82;20092;-75
2022/12/23 09:41:12;;;;;;;;;;;;;;;4.45;80.25;97405.57;1730759;82;20101;-75
2022/12/23 09:43:44;;;;;;;;;;;;;;;4.48;80.42;97401.57;1736538;82;20326;-76
2022/12/23 09:46:22;;;;;;;;;;;;;;;4.51;80.63;97408.09;1740676;82;20377;-76
2022/12/23 09:48:54;;;;;;;;;;;;;;;4.59;80.48;97403.61;1730778;82;20342;-75
2022/12/23 09:51:22;;;;;;;;;;;;;;;4.65;80.05;97407.88;1738985;80;20162;-75
2022/12/23 09:54:04;;;;;;;;;;;;;;;4.68;79.77;97399.09;1757539;80;20144;-75
2022/12/23 09:56:49;;;;;;;;;;;;;;;4.72;79.31;97400.78;1762599;81;20178;-75
2022/12/23 09:59:45;;;;;;;;;;;;;;;4.73;79.28;97397.26;1742125;80;20131;-76
2022/12/23 10:02:20;;;;;;;;;;;;;;;4.79;79.19;97389.74;1743351;80;21018;-76
2022/12/23 10:05:25;;;;;;;;;;;;;;;4.86;78.06;97390.93;1745019;80;20174;-76
2022/12/23 10:08:00;;;;;;;;;;;;;;;4.87;76.62;97387.41;1747210;81;20155;-75
2022/12/23 10:10:36;;;;;;;;;;;;;;;4.94;77.53;97388.64;1744607;81;20127;-78
2022/12/23 10:13:04;;;;;;;;;;;;;;;5.01;77.68;97384.56;1759401;81;20081;-78
2022/12/23 10:15:42;;;;;;;;;;;;;;;5.08;77.73;97389.27;1754653;80;20105;-78
2022/12/23 10:18:18;;;;;;;;;;;;;;;5.10;77.21;97386.59;1748213;80;20123;-77
2022/12/23 10:20:47;;;;;;;;;;;;;;;5.15;77.45;97387.41;1750320;81;20140;-78
2022/12/23 10:23:16;;;;;;;;;;;;;;;5.17;76.29;97387.36;1746327;81;20590;-78
2022/12/23 10:25:46;;;;;;;;;;;;;;;5.16;76.64;97387.82;1746014;80;20102;-75
2022/12/23 10:28:12;;;;;;;;;;;;;;;5.18;76.19;97380.77;1753890;81;20355;-79
2022/12/23 10:30:40;;;;;;;;;;;;;;;5.17;76.07;97382.98;1743588;81;20123;-78
2022/12/23 10:33:21;;;;;;;;;;;;;;;5.17;74.38;97371.59;1748237;81;20154;-78
2022/12/23 10:36:10;;;;;;;;;;;;;;;5.15;76.02;97372.96;1750626;80;20146;-76
2022/12/23 10:38:39;;;;;;;;;;;;;;;5.13;75.71;97379.55;1753533;81;20418;-77
2022/12/23 10:41:15;;;;;;;;;;;;;;;5.11;75.68;97380.47;1745210;81;20118;-77
2022/12/23 10:44:03;;;;;;;;;;;;;;;5.10;74.64;97385.28;1750550;81;20127;-77
2022/12/23 10:46:51;;;;;;;;;;;;;;;5.06;74.24;97379.69;1748993;80;20092;-76
2022/12/23 10:49:36;;;;;;;;;;;;;;;5.04;75.25;97375.77;1740564;81;20348;-76
2022/12/23 10:52:15;;;;;;;;;;;;;;;5.06;75.66;97372.66;1751820;79;20121;-76
2022/12/23 10:54:43;;;;;;;;;;;;;;;5.00;75.58;97379.33;1746872;79;20139;-74
2022/12/23 10:57:11;;;;;;;;;;;;;;;4.96;75.44;97382.91;1755956;79;20153;-73
2022/12/23 10:59:38;;;;;;;;;;;;;;;4.92;75.37;97387.34;1730965;83;20161;-73
2022/12/23 11:02:14;;;;;;;;;;;;;;;4.91;75.63;97384.30;1739100;82;20125;-75
2022/12/23 11:04:43;;;;;;;;;;;;;;;4.90;75.42;97375.98;1730203;82;20148;-75
2022/12/23 11:07:16;;;;;;;;;;;;;;;4.84;74.92;97378.72;1732782;82;20313;-74
2022/12/23 11:09:48;;;;;;;;;;;;;;;4.85;75.01;97378.70;1725828;82;20101;-75
2022/12/23 11:12:14;;;;;;;;;;;;;;;4.86;75.13;97379.58;1728751;82;20140;-74
2022/12/23 11:14:44;;;;;;;;;;;;;;;4.87;75.43;97371.65;1728165;82;20147;-75
2022/12/23 11:17:22;;;;;;;;;;;;;;;4.93;75.82;97373.31;1725584;82;20301;-74
2022/12/23 11:20:08;;;;;;;;;;;;;;;4.98;75.95;97369.31;1726460;82;20137;-73
2022/12/23 11:22:36;;;;;;;;;;;;;;;5.00;75.93;97364.89;1727107;82;20173;-74
2022/12/23 11:25:28;;;;;;;;;;;;;;;5.02;75.86;97369.66;1726158;82;20089;-74
2022/12/23 11:28:04;;;;;;;;;;;;;;;5.03;75.90;97366.16;1726728;82;20111;-74
2022/12/23 11:30:34;;;;;;;;;;;;;;;5.04;75.88;97365.27;1725748;82;20115;-74
2022/12/23 11:33:00;;;;;;;;;;;;;;;5.02;75.61;97356.09;1726153;81;20118;-74
2022/12/23 11:35:29;;;;;;;;;;;;;;;5.04;75.87;97347.31;1741395;82;20117;-75
2022/12/23 11:37:57;;;;;;;;;;;;;;;5.05;75.78;97359.55;1749047;82;20121;-74
2022/12/23 11:40:29;;;;;;;;;;;;;;;5.04;75.68;97357.38;1726147;82;20099;-74
2022/12/23 11:42:58;;;;;;;;;;;;;;;5.01;75.86;97360.05;1745683;82;20149;-74
2022/12/23 11:45:27;;;;;;;;;;;;;;;4.98;75.97;97350.94;1726232;82;20097;-75
2022/12/23 11:47:53;;;;;;;;;;;;;;;5.00;76.06;97346.51;1733683;82;20085;-74
2022/12/23 11:50:32;;;;;;;;;;;;;;;5.02;76.20;97333.77;1730373;82;20090;-77
2022/12/23 11:53:22;;;;;;;;;;;;;;;5.08;76.35;97327.98;1740379;82;20170;-77
2022/12/23 11:56:09;;;;;;;;;;;;;;;5.12;76.44;97330.98;1737663;82;20375;-77
2022/12/23 11:58:47;;;;;;;;;;;;;;;5.15;76.18;97344.06;1729403;82;20133;-79
2022/12/23 12:01:17;;;;;;;;;;;;;;;5.19;76.12;97348.34;1727381;82;20133;-76
2022/12/23 12:03:53;;;;;;;;;;;;;;;5.22;75.94;97338.22;1732861;82;20145;-77
2022/12/23 12:06:21;;;;;;;;;;;;;;;5.26;76.20;97347.78;1725989;82;20137;-76
2022/12/23 12:08:54;;;;;;;;;;;;;;;5.29;76.26;97345.96;1731300;82;20328;-75
2022/12/23 12:11:27;;;;;;;;;;;;;;;5.28;76.14;97353.43;1736729;82;20103;-76
2022/12/23 12:13:57;;;;;;;;;;;;;;;5.27;76.08;97351.70;1738630;82;20113;-76
2022/12/23 12:16:45;;;;;;;;;;;;;;;5.26;76.19;97349.98;1740605;81;20366;-75
2022/12/23 12:19:21;;;;;;;;;;;;;;;5.27;76.10;97354.33;1740989;82;20170;-76
2022/12/23 12:21:50;;;;;;;;;;;;;;;5.28;76.24;97356.52;1739862;82;20092;-75
2022/12/23 12:24:25;;;;;;;;;;;;;;;5.30;76.23;97357.34;1739620;82;20113;-76
2022/12/23 12:26:54;;;;;;;;;;;;;;;5.28;76.28;97356.05;1729686;80;20119;-77
2022/12/23 12:29:33;;;;;;;;;;;;;;;5.29;76.22;97362.19;1740920;82;20113;-75
2022/12/23 12:32:01;;;;;;;;;;;;;;;5.31;76.41;97363.48;1740568;82;20316;-75
2022/12/23 12:34:36;;;;;;;;;;;;;;;5.29;76.39;97360.88;1740578;82;20341;-75
2022/12/23 12:37:26;;;;;;;;;;;;;;;5.32;76.48;97366.52;1739446;82;20114;-75
2022/12/23 12:39:59;;;;;;;;;;;;;;;5.32;76.71;97365.20;1741227;82;20133;-75
2022/12/23 12:42:38;;;;;;;;;;;;;;;5.27;76.61;97361.33;1740991;82;20102;-75
2022/12/23 12:45:17;;;;;;;;;;;;;;;5.20;76.63;97364.98;1739922;82;20126;-74
2022/12/23 12:48:05;;;;;;;;;;;;;;;5.18;76.92;97358.44;1740552;82;20094;-75
2022/12/23 12:50:44;;;;;;;;;;;;;;;5.18;76.92;97365.00;1740532;81;20121;-75
2022/12/23 12:53:13;;;;;;;;;;;;;;;5.19;77.01;97363.25;1738562;82;20136;-75
2022/12/23 12:55:45;;;;;;;;;;;;;;;5.19;77.12;97357.53;1740294;82;20145;-74
2022/12/23 12:58:18;;;;;;;;;;;;;;;5.18;77.14;97370.26;1741469;82;20140;-74
2022/12/23 13:01:03;;;;;;;;;;;;;;;5.21;77.21;97370.22;1740254;82;20096;-74
2022/12/23 13:03:50;;;;;;;;;;;;;;;5.21;77.20;97371.97;1740663;82;20093;-74
2022/12/23 13:06:26;;;;;;;;;;;;;;;5.20;77.26;97361.92;1739530;82;20154;-76
2022/12/23 13:09:17;;;;;;;;;;;;;;;5.18;77.20;97355.81;1741272;82;20097;-74
2022/12/23 13:11:56;;;;;;;;;;;;;;;5.11;77.32;97351.11;1738863;82;20158;-73
2022/12/23 13:14:46;;;;;;;;;;;;;;;5.12;77.43;97352.84;1739601;81;20139;-74
2022/12/23 13:17:20;;;;;;;;;;;;;;;5.13;77.57;97355.03;1740577;82;20078;-74
2022/12/23 13:19:50;;;;;;;;;;;;;;;5.12;77.67;97347.59;1740248;82;20153;-74
2022/12/23 13:22:26;;;;;;;;;;;;;;;5.10;77.77;97348.50;1741450;82;20141;-75
2022/12/23 13:24:56;;;;;;;;;;;;;;;5.10;77.77;97365.14;1741186;82;20096;-74
2022/12/23 13:27:57;;;;;;;;;;;;;;;5.09;77.66;97364.73;1741682;82;20113;-74
2022/12/23 13:30:26;;;;;;;;;;;;;;;5.08;77.74;97366.06;1740397;82;20118;-75
2022/12/23 13:33:03;;;;;;;;;;;;;;;5.05;77.75;97361.73;1740292;82;20101;-75
2022/12/23 13:35:39;;;;;;;;;;;;;;;5.03;77.59;97367.48;1739970;82;20130;-75
2022/12/23 13:38:18;;;;;;;;;;;;;;;4.97;77.76;97364.50;1737873;82;20145;-76
2022/12/23 13:41:12;;;;;;;;;;;;;;;5.00;77.98;97364.89;1741407;82;20100;-74
2022/12/23 13:43:45;;;;;;;;;;;;;;;4.99;78.02;97361.38;1740117;82;20137;-75
2022/12/23 13:46:31;;;;;;;;;;;;;;;5.05;78.08;97366.11;1740570;82;20354;-75